createdAt,value
2022-11-23T00:01:42.060Z,14.91
2022-11-23T00:06:45.209Z,14.88
2022-11-23T00:11:48.333Z,14.93
2022-11-23T00:16:52.881Z,14.89
2022-11-23T00:21:56.039Z,14.93
2022-11-23T00:27:00.323Z,14.94
2022-11-23T00:32:05.959Z,14.94
2022-11-23T00:37:09.383Z,14.95
2022-11-23T00:42:12.575Z,14.98
2022-11-23T00:47:17.113Z,14.98
2022-11-23T00:52:20.261Z,14.98
2022-11-23T00:57:23.427Z,14.97
2022-11-23T01:02:28.065Z,14.98
2022-11-23T01:07:31.728Z,14.97
2022-11-23T01:12:34.966Z,14.97
2022-11-23T01:17:39.551Z,15.00
2022-11-23T01:22:43.247Z,15.01
2022-11-23T01:27:46.434Z,15.03
2022-11-23T01:32:50.991Z,15.05
2022-11-23T01:37:54.129Z,15.03
2022-11-23T01:43:00.382Z,15.02
2022-11-23T01:48:09.469Z,15.02
2022-11-23T01:53:12.795Z,15.04
2022-11-23T01:58:20.431Z,15.02
2022-11-23T02:03:25.474Z,15.03
2022-11-23T02:08:29.606Z,15.06
2022-11-23T02:13:33.186Z,15.10
2022-11-23T02:18:39.922Z,15.09
2022-11-23T02:23:51.356Z,15.10
2022-11-23T02:29:01.403Z,15.12
2022-11-23T02:34:04.705Z,15.12
2022-11-23T02:39:12.000Z,15.12
2022-11-23T02:44:35.416Z,15.11
2022-11-23T02:49:38.731Z,15.11
2022-11-23T02:54:41.887Z,15.11
2022-11-23T02:59:46.446Z,15.12
2022-11-23T03:04:49.589Z,15.09
2022-11-23T03:09:52.782Z,15.12
2022-11-23T03:14:57.400Z,15.12
2022-11-23T03:20:00.623Z,15.11
2022-11-23T03:25:03.774Z,15.15
2022-11-23T03:30:10.570Z,15.16
2022-11-23T03:35:13.966Z,15.16
2022-11-23T03:40:17.287Z,15.17
2022-11-23T03:45:21.861Z,15.16
2022-11-23T03:50:24.988Z,15.12
2022-11-23T03:55:28.158Z,15.16
2022-11-23T04:00:32.814Z,15.17
2022-11-23T04:05:35.711Z,15.09
2022-11-23T04:10:38.889Z,15.15
2022-11-23T04:15:43.470Z,15.08
2022-11-23T04:20:46.591Z,15.10
2022-11-23T04:25:49.723Z,15.11
2022-11-23T04:30:54.310Z,15.15
2022-11-23T04:35:57.422Z,15.17
2022-11-23T04:41:00.632Z,15.15
2022-11-23T04:46:05.241Z,15.13
2022-11-23T04:51:08.779Z,15.12
2022-11-23T04:56:11.958Z,15.12
2022-11-23T05:01:16.649Z,15.10
2022-11-23T05:06:19.576Z,15.09
2022-11-23T05:11:22.746Z,15.10
2022-11-23T05:16:27.283Z,15.13
2022-11-23T05:21:30.438Z,15.17
2022-11-23T05:26:33.550Z,15.13
2022-11-23T05:31:38.154Z,15.13
2022-11-23T05:36:42.495Z,15.08
2022-11-23T05:41:45.795Z,15.07
2022-11-23T05:46:50.336Z,15.05
2022-11-23T05:51:53.525Z,15.01
2022-11-23T05:56:56.702Z,14.99
2022-11-23T06:02:01.339Z,14.99
2022-11-23T06:07:04.323Z,14.91
2022-11-23T06:12:08.143Z,14.90
2022-11-23T06:17:12.694Z,14.85
2022-11-23T06:22:16.470Z,14.80
2022-11-23T06:27:19.600Z,14.78
2022-11-23T06:32:24.164Z,14.71
2022-11-23T06:37:27.359Z,14.60
2022-11-23T06:42:38.844Z,14.59
2022-11-23T06:47:44.623Z,14.58
2022-11-23T06:52:47.758Z,14.62
2022-11-23T06:57:51.242Z,14.58
2022-11-23T07:02:56.634Z,14.60
2022-11-23T07:07:59.842Z,14.57
2022-11-23T07:13:05.907Z,14.58
2022-11-23T07:18:13.167Z,14.54
2022-11-23T07:23:16.310Z,14.50
2022-11-23T07:28:20.014Z,14.46
2022-11-23T07:33:24.605Z,14.48
2022-11-23T07:38:27.763Z,14.49
2022-11-23T07:43:30.985Z,14.46
2022-11-23T07:48:36.699Z,14.41
2022-11-23T07:53:40.016Z,14.36
2022-11-23T07:58:43.178Z,14.40
2022-11-23T08:03:48.190Z,14.36
2022-11-23T08:08:51.722Z,14.35
2022-11-23T08:13:55.065Z,14.28
2022-11-23T08:18:59.665Z,14.27
2022-11-23T08:24:02.919Z,14.29
2022-11-23T08:29:06.170Z,14.34
2022-11-23T08:34:10.708Z,14.25
2022-11-23T08:39:14.898Z,14.24
2022-11-23T08:44:18.123Z,14.18
2022-11-23T08:49:22.718Z,14.16
2022-11-23T08:54:25.868Z,14.21
2022-11-23T08:59:29.024Z,14.21
2022-11-23T09:04:33.834Z,14.30
2022-11-23T09:09:37.292Z,14.41
2022-11-23T09:14:40.496Z,14.62
2022-11-23T09:19:45.044Z,14.75
2022-11-23T09:24:48.181Z,14.79
2022-11-23T09:29:51.377Z,14.89
2022-11-23T09:34:55.964Z,14.89
2022-11-23T09:39:59.164Z,14.90
2022-11-23T09:45:15.629Z,14.94
2022-11-23T09:50:25.867Z,14.83
2022-11-23T09:55:37.832Z,14.73
2022-11-23T10:00:47.495Z,14.83
2022-11-23T10:06:02.145Z,14.81
2022-11-23T10:11:23.242Z,14.83
2022-11-23T10:16:36.706Z,14.99
2022-11-23T10:21:52.779Z,15.12
2022-11-23T10:26:55.934Z,15.19
2022-11-23T10:32:00.944Z,15.28
2022-11-23T10:37:09.567Z,15.39
2022-11-23T10:42:23.206Z,15.53
2022-11-23T10:47:38.812Z,15.57
2022-11-23T10:52:52.401Z,15.64
2022-11-23T10:57:56.065Z,15.67
2022-11-23T11:03:00.305Z,15.71
2022-11-23T11:08:15.091Z,15.68
2022-11-23T11:13:26.772Z,15.71
2022-11-23T11:18:32.867Z,15.75
2022-11-23T11:23:42.411Z,15.80
2022-11-23T11:28:50.278Z,15.84
2022-11-23T11:34:00.114Z,15.86
2022-11-23T11:39:18.669Z,15.98
2022-11-23T11:44:25.533Z,16.25
2022-11-23T11:49:34.406Z,16.44
2022-11-23T11:54:45.207Z,16.26
2022-11-23T11:59:50.496Z,16.20
2022-11-23T12:05:06.704Z,16.15
2022-11-23T12:10:17.298Z,16.29
2022-11-23T12:20:57.189Z,16.44
2022-11-23T12:26:15.699Z,16.25
2022-11-23T12:31:31.523Z,16.13
2022-11-23T12:37:09.389Z,16.04
2022-11-23T12:42:21.754Z,16.30
2022-11-23T12:47:42.978Z,16.71
2022-11-23T12:53:01.131Z,16.98
2022-11-23T12:58:13.187Z,17.14
2022-11-23T13:04:13.062Z,17.16
2022-11-23T13:09:39.382Z,17.03
2022-11-23T13:14:50.850Z,16.76
2022-11-23T13:20:14.200Z,16.84
2022-11-23T13:25:24.404Z,16.66
2022-11-23T13:30:51.956Z,16.46
2022-11-23T13:36:07.649Z,16.47
2022-11-23T13:41:57.874Z,16.52
2022-11-23T13:47:05.398Z,16.45
2022-11-23T13:52:29.072Z,16.25
2022-11-23T13:57:32.825Z,15.94
2022-11-23T14:02:37.607Z,15.80
2022-11-23T14:07:46.403Z,15.72
2022-11-23T14:12:53.433Z,16.31
2022-11-23T14:18:20.144Z,17.34
2022-11-23T14:23:46.456Z,17.35
2022-11-23T14:29:07.696Z,17.07
2022-11-23T14:34:22.200Z,16.62
2022-11-23T14:40:02.396Z,16.41
2022-11-23T14:45:07.646Z,16.33
2022-11-23T14:50:25.821Z,16.23
2022-11-23T14:55:33.146Z,16.34
2022-11-23T15:00:40.491Z,16.95
2022-11-23T15:05:48.746Z,17.46
2022-11-23T15:11:01.361Z,17.56
2022-11-23T15:16:06.393Z,17.57
2022-11-23T15:21:27.231Z,17.49
2022-11-23T15:26:48.024Z,17.45
2022-11-23T15:32:14.227Z,17.06
2022-11-23T15:37:18.268Z,16.50
2022-11-23T15:42:24.032Z,16.61
2022-11-23T15:47:31.135Z,16.78
2022-11-23T15:52:37.990Z,16.76
2022-11-23T15:57:42.775Z,16.49
2022-11-23T16:02:46.095Z,16.19
2022-11-23T16:07:56.462Z,15.85
2022-11-23T16:13:01.282Z,15.71
2022-11-23T16:18:05.688Z,15.68
2022-11-23T16:23:18.851Z,15.65
2022-11-23T16:28:28.844Z,15.61
2022-11-23T16:33:32.124Z,15.50
2022-11-23T16:38:36.691Z,15.38
2022-11-23T16:43:39.884Z,15.23
2022-11-23T16:48:43.689Z,15.15
2022-11-23T16:59:18.242Z,14.91
2022-11-23T17:04:21.434Z,14.78
2022-11-23T17:09:26.140Z,14.75
2022-11-23T17:14:29.939Z,14.67
2022-11-23T17:19:33.423Z,14.61
2022-11-23T17:24:38.155Z,14.66
2022-11-23T17:29:42.339Z,14.76
2022-11-23T17:34:46.029Z,14.84
2022-11-23T17:39:51.793Z,14.80
2022-11-23T17:44:55.378Z,14.74
2022-11-23T17:49:59.708Z,14.69
2022-11-23T17:55:04.475Z,14.55
2022-11-23T18:00:09.221Z,14.49
2022-11-23T18:05:16.548Z,14.51
2022-11-23T18:10:25.669Z,14.47
2022-11-23T18:15:30.453Z,14.41
2022-11-23T18:20:33.674Z,14.40
2022-11-23T18:25:38.258Z,14.36
2022-11-23T18:30:41.447Z,14.30
2022-11-23T18:35:44.619Z,14.23
2022-11-23T18:40:49.173Z,14.10
2022-11-23T18:45:52.878Z,13.99
2022-11-23T18:50:56.208Z,13.94
2022-11-23T18:56:05.543Z,13.96
2022-11-23T19:01:12.376Z,13.94
2022-11-23T19:06:17.227Z,13.92
2022-11-23T19:11:23.650Z,13.84
2022-11-23T19:16:28.945Z,13.79
2022-11-23T19:21:33.479Z,13.75
2022-11-23T19:26:38.307Z,13.68
2022-11-23T19:31:41.281Z,13.45
2022-11-23T19:36:44.453Z,13.43
2022-11-23T19:41:49.266Z,13.39
2022-11-23T19:46:52.171Z,13.20
2022-11-23T19:51:56.491Z,13.33
2022-11-23T19:57:01.223Z,13.37
2022-11-23T20:02:04.441Z,13.43
2022-11-23T20:07:07.687Z,13.42
2022-11-23T20:12:12.246Z,13.46
2022-11-23T20:17:15.697Z,13.46
2022-11-23T20:22:18.889Z,13.39
2022-11-23T20:27:23.442Z,13.31
2022-11-23T20:32:26.598Z,13.36
2022-11-23T20:37:29.737Z,13.22
2022-11-23T20:42:34.288Z,13.09
2022-11-23T20:47:37.640Z,13.00
2022-11-23T20:52:40.873Z,12.99
2022-11-23T20:57:45.432Z,12.77
2022-11-23T21:02:50.985Z,12.75
2022-11-23T21:07:54.213Z,12.68
2022-11-23T21:13:16.023Z,12.71
2022-11-23T21:18:19.178Z,12.70
2022-11-23T21:23:22.324Z,12.70
2022-11-23T21:28:27.033Z,12.71
2022-11-23T21:33:30.869Z,12.58
2022-11-23T21:38:38.638Z,12.45
2022-11-23T21:43:43.513Z,12.45
2022-11-23T21:48:46.381Z,12.43
2022-11-23T21:53:49.594Z,12.42
2022-11-23T21:58:54.475Z,12.38
2022-11-23T22:03:58.042Z,12.25
2022-11-23T22:09:01.374Z,12.19
2022-11-23T22:14:09.167Z,12.25
2022-11-23T22:19:13.364Z,12.22
2022-11-23T22:24:18.207Z,12.09
2022-11-23T22:29:22.951Z,12.08
2022-11-23T22:34:26.838Z,12.20
2022-11-23T22:39:30.191Z,12.32
2022-11-23T22:44:35.441Z,12.39
2022-11-23T22:49:38.821Z,12.42
2022-11-23T22:54:42.121Z,12.43
2022-11-23T22:59:46.826Z,12.45
2022-11-23T23:04:50.238Z,12.44
2022-11-23T23:09:53.606Z,12.42
2022-11-23T23:14:58.333Z,12.37
2022-11-23T23:20:01.976Z,12.37
2022-11-23T23:25:07.857Z,12.34
2022-11-23T23:30:13.565Z,12.37
2022-11-23T23:35:17.015Z,12.44
2022-11-23T23:40:20.323Z,12.49
2022-11-23T23:45:25.103Z,12.52
2022-11-23T23:50:28.421Z,12.53
2022-11-23T23:55:31.718Z,12.56
